createdAt,value
2023-05-12T00:00:55.441Z,56.80
2023-05-12T00:03:22.215Z,56.70
2023-05-12T00:05:48.891Z,56.70
2023-05-12T00:08:15.558Z,56.90
2023-05-12T00:10:42.237Z,56.80
2023-05-12T00:13:09.093Z,56.90
2023-05-12T00:15:36.995Z,56.90
2023-05-12T00:18:03.727Z,56.90
2023-05-12T00:20:30.370Z,57.00
2023-05-12T00:22:57.032Z,56.90
2023-05-12T00:25:23.605Z,57.00
2023-05-12T00:27:50.274Z,57.10
2023-05-12T00:30:17.062Z,56.90
2023-05-12T00:32:43.770Z,57.00
2023-05-12T00:35:10.392Z,57.20
2023-05-12T00:37:36.968Z,57.10
2023-05-12T00:40:04.262Z,57.20
2023-05-12T00:42:30.883Z,57.10
2023-05-12T00:44:57.449Z,57.10
2023-05-12T00:47:24.196Z,57.00
2023-05-12T00:49:51.098Z,57.30
2023-05-12T00:52:17.696Z,57.30
2023-05-12T00:54:44.452Z,57.10
2023-05-12T00:57:11.486Z,57.00
2023-05-12T00:59:38.245Z,57.00
2023-05-12T01:02:04.969Z,57.00
2023-05-12T01:04:32.789Z,56.90
2023-05-12T01:07:03.434Z,56.90
2023-05-12T01:09:30.005Z,56.90
2023-05-12T01:11:56.553Z,56.80
2023-05-12T01:14:23.206Z,56.80
2023-05-12T01:16:52.072Z,56.70
2023-05-12T01:19:34.161Z,57.00
2023-05-12T01:22:00.878Z,56.90
2023-05-12T01:24:29.211Z,56.90
2023-05-12T01:26:55.767Z,57.10
2023-05-12T01:29:22.750Z,56.90
2023-05-12T01:31:49.857Z,56.90
2023-05-12T01:34:18.439Z,57.10
2023-05-12T01:36:45.041Z,57.00
2023-05-12T01:39:12.599Z,56.90
2023-05-12T01:41:39.171Z,57.00
2023-05-12T01:44:05.738Z,57.30
2023-05-12T01:46:32.344Z,57.10
2023-05-12T01:48:58.929Z,57.20
2023-05-12T01:51:25.520Z,57.10
2023-05-12T01:53:52.073Z,56.90
2023-05-12T01:56:18.772Z,56.80
2023-05-12T01:58:45.457Z,56.80
2023-05-12T02:01:12.012Z,56.80
2023-05-12T02:03:38.683Z,56.70
2023-05-12T02:06:05.356Z,56.70
2023-05-12T02:08:31.986Z,56.80
2023-05-12T02:11:06.088Z,56.90
2023-05-12T02:13:32.708Z,56.90
2023-05-12T02:15:59.335Z,56.90
2023-05-12T02:18:26.021Z,56.90
2023-05-12T02:20:52.580Z,56.90
2023-05-12T02:23:19.191Z,56.90
2023-05-12T02:25:46.416Z,57.00
2023-05-12T02:28:13.053Z,57.10
2023-05-12T02:30:44.320Z,57.10
2023-05-12T02:33:10.892Z,57.20
2023-05-12T02:35:37.450Z,57.00
2023-05-12T02:38:04.861Z,57.00
2023-05-12T02:40:31.431Z,56.90
2023-05-12T02:42:58.040Z,57.20
2023-05-12T02:45:24.603Z,56.80
2023-05-12T02:47:51.176Z,57.20
2023-05-12T02:50:17.835Z,56.80
2023-05-12T02:52:44.535Z,56.80
2023-05-12T02:55:11.159Z,56.30
2023-05-12T02:57:37.772Z,56.70
2023-05-12T03:00:07.854Z,56.80
2023-05-12T03:02:35.022Z,56.70
2023-05-12T03:05:02.052Z,56.90
2023-05-12T03:07:28.716Z,56.50
2023-05-12T03:09:55.329Z,56.70
2023-05-12T03:12:21.909Z,56.40
2023-05-12T03:14:48.551Z,56.60
2023-05-12T03:17:15.210Z,56.50
2023-05-12T03:19:41.802Z,56.50
2023-05-12T03:22:08.532Z,57.30
2023-05-12T03:24:35.470Z,56.70
2023-05-12T03:27:02.092Z,56.50
2023-05-12T03:29:28.686Z,56.10
2023-05-12T03:31:55.246Z,56.00
2023-05-12T03:34:21.961Z,56.20
2023-05-12T03:36:48.585Z,55.70
2023-05-12T03:39:15.666Z,55.60
2023-05-12T03:41:42.329Z,55.60
2023-05-12T03:44:08.982Z,56.00
2023-05-12T03:46:35.638Z,55.50
2023-05-12T03:49:02.270Z,55.70
2023-05-12T03:51:28.845Z,55.70
2023-05-12T03:53:55.500Z,55.70
2023-05-12T03:56:22.039Z,55.70
2023-05-12T03:58:48.828Z,55.70
2023-05-12T04:01:15.535Z,55.70
2023-05-12T04:03:42.243Z,55.90
2023-05-12T04:06:08.942Z,55.90
2023-05-12T04:08:35.507Z,55.90
2023-05-12T04:11:02.333Z,56.10
2023-05-12T04:13:30.104Z,55.90
2023-05-12T04:15:57.735Z,56.00
2023-05-12T04:18:26.741Z,56.20
2023-05-12T04:20:53.903Z,56.20
2023-05-12T04:23:20.609Z,56.10
2023-05-12T04:25:47.339Z,56.20
2023-05-12T04:28:14.097Z,56.30
2023-05-12T04:30:41.874Z,56.20
2023-05-12T04:33:08.810Z,56.30
2023-05-12T04:35:35.825Z,56.30
2023-05-12T04:38:03.285Z,56.30
2023-05-12T04:40:31.176Z,56.00
2023-05-12T04:42:58.614Z,56.20
2023-05-12T04:45:25.199Z,56.20
2023-05-12T04:47:51.865Z,56.10
2023-05-12T04:50:18.497Z,56.00
2023-05-12T04:52:45.147Z,55.90
2023-05-12T04:55:11.973Z,55.90
2023-05-12T04:57:41.209Z,55.80
2023-05-12T05:00:09.076Z,55.90
2023-05-12T05:02:35.978Z,56.10
2023-05-12T05:05:02.679Z,55.90
2023-05-12T05:07:29.313Z,55.90
2023-05-12T05:09:55.869Z,56.10
2023-05-12T05:12:22.530Z,56.20
2023-05-12T05:14:49.197Z,56.20
2023-05-12T05:17:15.761Z,56.20
2023-05-12T05:19:55.085Z,56.20
2023-05-12T05:22:24.707Z,56.30
2023-05-12T05:24:51.838Z,56.20
2023-05-12T05:27:18.770Z,55.80
2023-05-12T05:29:45.439Z,56.40
2023-05-12T05:32:12.041Z,56.70
2023-05-12T05:34:38.670Z,56.40
2023-05-12T05:37:05.717Z,56.30
2023-05-12T05:39:32.371Z,56.50
2023-05-12T05:41:58.962Z,56.50
2023-05-12T05:44:25.523Z,56.40
2023-05-12T05:46:52.170Z,56.30
2023-05-12T09:49:45.697Z,59.30
2023-05-12T09:52:12.409Z,53.50
2023-05-12T09:54:39.604Z,52.60
2023-05-12T09:57:06.475Z,52.10
2023-05-12T09:59:36.435Z,51.30
2023-05-12T10:02:05.406Z,50.90
2023-05-12T10:04:41.694Z,49.90
2023-05-12T10:07:09.955Z,48.90
2023-05-12T10:09:39.255Z,48.10
2023-05-12T10:12:06.425Z,49.00
2023-05-12T10:14:33.534Z,49.20
2023-05-12T10:17:00.875Z,49.60
2023-05-12T10:19:28.559Z,48.80
2023-05-12T10:21:56.425Z,49.20
2023-05-12T10:24:25.270Z,47.70
2023-05-12T10:26:53.078Z,47.80
2023-05-12T10:29:19.952Z,48.20
2023-05-12T10:31:46.708Z,47.90
2023-05-12T10:34:17.635Z,47.50
2023-05-12T10:36:49.738Z,47.20
2023-05-12T10:39:16.331Z,47.20
2023-05-12T10:41:42.956Z,46.60
2023-05-12T10:44:12.665Z,47.90
2023-05-12T10:46:39.265Z,48.90
2023-05-12T10:49:05.869Z,47.90
2023-05-12T10:51:50.400Z,47.40
2023-05-12T10:54:21.861Z,49.50
2023-05-12T10:56:48.735Z,49.20
2023-05-12T10:59:17.783Z,48.90
2023-05-12T11:02:01.847Z,48.30
2023-05-12T11:04:40.889Z,47.90
2023-05-12T11:07:11.796Z,48.70
2023-05-12T11:09:56.026Z,48.90
2023-05-12T11:12:24.971Z,49.70
2023-05-12T11:14:51.664Z,48.60
2023-05-12T11:17:18.233Z,48.30
2023-05-12T11:19:45.765Z,48.00
2023-05-12T11:22:12.627Z,47.70
2023-05-12T11:24:40.351Z,47.60
2023-05-12T11:27:07.818Z,50.00
2023-05-12T11:29:34.868Z,50.40
2023-05-12T11:32:01.779Z,49.30
2023-05-12T11:34:28.442Z,48.20
2023-05-12T11:36:56.093Z,49.30
2023-05-12T11:39:24.021Z,49.40
2023-05-12T11:41:54.707Z,48.20
2023-05-12T11:44:29.229Z,48.50
2023-05-12T11:46:56.936Z,48.10
2023-05-12T11:49:23.587Z,48.50
2023-05-12T11:51:57.520Z,47.60
2023-05-12T11:54:25.019Z,47.80
2023-05-12T11:56:52.495Z,45.90
2023-05-12T11:59:26.319Z,47.40
2023-05-12T12:01:53.099Z,47.90
2023-05-12T12:04:19.757Z,48.10
2023-05-12T12:06:46.523Z,48.20
2023-05-12T12:09:13.593Z,47.80
2023-05-12T12:11:40.462Z,47.30
2023-05-12T12:14:07.058Z,47.90
2023-05-12T12:16:33.775Z,48.20
2023-05-12T12:19:00.673Z,48.70
2023-05-12T12:21:27.433Z,47.80
2023-05-12T12:23:54.008Z,48.30
2023-05-12T12:26:21.636Z,47.90
2023-05-12T12:28:48.659Z,47.30
2023-05-12T12:31:15.838Z,47.40
2023-05-12T12:33:42.724Z,47.10
2023-05-12T12:36:09.450Z,48.80
2023-05-12T12:38:36.050Z,49.30
2023-05-12T12:41:02.632Z,49.50
2023-05-12T12:43:29.181Z,47.90
2023-05-12T12:45:55.882Z,48.30
2023-05-12T12:48:22.646Z,47.70
2023-05-12T12:50:49.494Z,48.10
2023-05-12T12:53:16.813Z,47.60
2023-05-12T12:55:43.451Z,46.30
2023-05-12T12:58:10.091Z,45.20
2023-05-12T13:00:36.850Z,45.60
2023-05-12T13:03:04.198Z,46.10
2023-05-12T13:05:30.914Z,46.60
2023-05-12T13:07:57.648Z,46.30
2023-05-12T13:10:25.344Z,46.40
2023-05-12T13:12:52.007Z,47.00
2023-05-12T13:18:08.759Z,47.50
2023-05-12T13:20:43.066Z,47.60
2023-05-12T13:23:09.634Z,47.20
2023-05-12T13:25:36.200Z,47.70
2023-05-12T13:28:02.934Z,47.60
2023-05-12T13:30:29.481Z,48.30
2023-05-12T13:33:00.166Z,47.50
2023-05-12T13:35:26.777Z,47.30
2023-05-12T13:37:58.145Z,47.90
2023-05-12T13:40:38.233Z,47.10
2023-05-12T13:43:05.079Z,47.00
2023-05-12T13:45:31.669Z,47.30
2023-05-12T13:48:12.325Z,46.90
2023-05-12T13:50:41.794Z,47.70
2023-05-12T13:53:08.408Z,47.30
2023-05-12T13:55:47.524Z,48.70
2023-05-12T13:58:14.106Z,47.70
2023-05-12T14:00:42.549Z,48.50
2023-05-12T14:03:09.203Z,49.10
2023-05-12T14:05:35.898Z,49.10
2023-05-12T14:08:02.542Z,49.30
2023-05-12T14:10:55.114Z,49.60
2023-05-12T14:13:20.137Z,49.50
2023-05-12T14:15:49.395Z,47.40
2023-05-12T14:18:16.786Z,47.50
2023-05-12T14:20:43.417Z,47.20
2023-05-12T14:23:09.998Z,48.20
2023-05-12T14:25:36.639Z,48.20
2023-05-12T14:28:03.603Z,48.50
2023-05-12T14:30:30.377Z,48.80
2023-05-12T14:32:57.201Z,49.60
2023-05-12T14:35:27.560Z,49.20
2023-05-12T14:37:54.832Z,50.00
2023-05-12T14:40:21.505Z,47.60
2023-05-12T14:42:48.052Z,48.30
2023-05-12T14:45:14.820Z,48.50
2023-05-12T14:47:41.594Z,48.20
2023-05-12T14:50:08.378Z,47.80
2023-05-12T14:52:38.286Z,48.30
2023-05-12T14:55:11.748Z,49.60
2023-05-12T14:57:39.058Z,49.10
2023-05-12T15:00:10.852Z,50.00
2023-05-12T15:02:38.151Z,49.30
2023-05-12T15:05:08.739Z,49.40
2023-05-12T15:07:35.998Z,49.40
2023-05-12T15:10:02.601Z,50.40
2023-05-12T15:12:29.249Z,50.00
2023-05-12T15:14:56.395Z,49.40
2023-05-12T15:17:23.421Z,50.10
2023-05-12T15:19:50.232Z,49.00
2023-05-12T15:22:16.820Z,49.80
2023-05-12T15:24:43.599Z,50.20
2023-05-12T15:27:10.297Z,51.20
2023-05-12T15:29:40.670Z,49.60
2023-05-12T15:32:07.750Z,49.20
2023-05-12T15:34:34.807Z,49.90
2023-05-12T15:37:01.384Z,49.90
2023-05-12T15:39:28.096Z,50.70
2023-05-12T15:41:54.770Z,50.80
2023-05-12T15:44:21.625Z,49.30
2023-05-12T15:46:48.390Z,49.50
2023-05-12T15:49:14.991Z,50.00
2023-05-12T15:51:41.654Z,50.50
2023-05-12T15:54:09.509Z,49.90
2023-05-12T15:56:36.522Z,49.70
2023-05-12T15:59:05.106Z,49.40
2023-05-12T16:01:31.852Z,50.10
2023-05-12T16:03:58.731Z,49.00
2023-05-12T16:06:25.593Z,49.80
2023-05-12T16:08:53.133Z,50.40
2023-05-12T16:11:19.843Z,50.70
2023-05-12T16:13:46.475Z,51.00
2023-05-12T16:16:13.261Z,51.20
2023-05-12T16:18:40.197Z,51.70
2023-05-12T16:21:07.172Z,51.10
2023-05-12T16:23:33.759Z,51.10
2023-05-12T16:26:00.353Z,51.20
2023-05-12T16:28:27.120Z,51.00
2023-05-12T16:30:53.674Z,51.40
2023-05-12T16:33:20.356Z,50.70
2023-05-12T16:35:47.128Z,49.60
2023-05-12T16:38:13.704Z,50.10
2023-05-12T16:40:40.259Z,49.50
2023-05-12T16:43:06.963Z,50.70
2023-05-12T16:45:33.890Z,51.40
2023-05-12T16:48:00.565Z,51.40
2023-05-12T16:50:27.252Z,50.90
2023-05-12T16:52:53.986Z,51.40
2023-05-12T16:55:20.904Z,51.20
2023-05-12T16:57:47.768Z,51.30
2023-05-12T17:00:14.871Z,52.10
2023-05-12T17:02:41.770Z,51.90
2023-05-12T17:05:08.447Z,51.80
2023-05-12T17:07:38.000Z,52.60
2023-05-12T17:10:04.756Z,52.60
2023-05-12T17:12:31.385Z,52.40
2023-05-12T17:15:06.831Z,52.40
2023-05-12T17:17:34.168Z,52.50
2023-05-12T17:20:01.037Z,52.20
2023-05-12T17:22:28.033Z,52.70
2023-05-12T17:24:54.706Z,52.00
2023-05-12T17:27:21.507Z,52.70
2023-05-12T17:29:48.133Z,52.40
2023-05-12T17:32:14.744Z,52.60
2023-05-12T17:34:41.347Z,52.30
2023-05-12T17:37:07.899Z,51.80
2023-05-12T17:39:34.576Z,52.00
2023-05-12T17:42:01.238Z,52.30
2023-05-12T17:44:27.883Z,51.80
2023-05-12T17:46:54.562Z,51.50
2023-05-12T17:49:21.222Z,53.10
2023-05-12T17:51:49.335Z,52.30
2023-05-12T17:54:15.970Z,52.50
2023-05-12T17:56:44.568Z,52.30
2023-05-12T17:59:12.289Z,53.00
2023-05-12T18:01:39.656Z,53.60
2023-05-12T18:04:06.426Z,53.50
2023-05-12T18:06:33.192Z,53.70
2023-05-12T18:08:59.833Z,53.50
2023-05-12T18:11:26.443Z,54.40
2023-05-12T18:13:53.690Z,53.70
2023-05-12T18:16:28.533Z,53.20
2023-05-12T18:18:56.272Z,53.00
2023-05-12T18:21:22.877Z,51.90
2023-05-12T18:23:49.484Z,52.20
2023-05-12T18:26:16.121Z,52.00
2023-05-12T18:28:42.696Z,52.00
2023-05-12T18:31:15.963Z,52.10
2023-05-12T18:33:45.969Z,53.40
2023-05-12T18:36:12.915Z,52.20
2023-05-12T18:38:39.657Z,52.30
2023-05-12T18:41:06.264Z,51.90
2023-05-12T18:43:32.919Z,52.00
2023-05-12T18:45:59.725Z,52.30
2023-05-12T18:48:26.453Z,51.90
2023-05-12T18:50:53.104Z,52.00
2023-05-12T18:53:19.651Z,52.70
2023-05-12T18:55:46.234Z,52.50
2023-05-12T18:58:13.497Z,51.10
2023-05-12T19:00:40.050Z,51.90
2023-05-12T19:03:06.692Z,52.30
2023-05-12T19:05:33.426Z,52.10
2023-05-12T19:08:00.045Z,52.60
2023-05-12T19:10:26.801Z,52.50
2023-05-12T19:12:53.477Z,52.00
2023-05-12T19:15:21.469Z,51.80
2023-05-12T19:17:49.165Z,52.30
2023-05-12T19:20:15.784Z,53.30
2023-05-12T19:22:42.423Z,52.50
2023-05-12T19:25:09.394Z,52.90
2023-05-12T19:27:36.034Z,53.00
2023-05-12T19:30:05.004Z,53.10
2023-05-12T19:32:32.231Z,53.00
2023-05-12T19:35:00.183Z,53.50
2023-05-12T19:37:27.512Z,53.60
2023-05-12T19:39:54.131Z,52.90
2023-05-12T19:42:21.369Z,53.20
2023-05-12T19:44:47.924Z,53.90
2023-05-12T19:47:14.596Z,53.90
2023-05-12T19:49:41.686Z,53.90
2023-05-12T19:52:08.544Z,53.50
2023-05-12T19:54:35.755Z,53.30
2023-05-12T19:57:02.354Z,53.20
2023-05-12T19:59:28.968Z,53.40
2023-05-12T20:01:55.615Z,53.40
2023-05-12T20:04:23.066Z,53.40
2023-05-12T20:06:49.646Z,53.20
2023-05-12T20:09:16.261Z,53.40
2023-05-12T20:11:42.820Z,53.60
2023-05-12T20:14:09.358Z,53.60
2023-05-12T20:16:36.273Z,53.80
2023-05-12T20:19:03.118Z,53.80
2023-05-12T20:21:31.356Z,53.80
2023-05-12T20:23:57.936Z,53.90
2023-05-12T20:26:24.686Z,53.80
2023-05-12T20:28:51.315Z,54.10
2023-05-12T20:31:18.460Z,53.90
2023-05-12T20:33:45.049Z,54.20
2023-05-12T20:36:11.625Z,54.10
2023-05-12T20:38:38.220Z,54.60
2023-05-12T20:41:05.564Z,54.30
2023-05-12T20:43:32.772Z,54.30
2023-05-12T20:45:59.525Z,54.40
2023-05-12T20:48:26.150Z,54.60
2023-05-12T20:50:52.988Z,54.70
2023-05-12T20:53:19.568Z,54.70
2023-05-12T20:55:46.103Z,54.90
2023-05-12T20:58:12.650Z,55.10
2023-05-12T21:00:39.289Z,55.40
2023-05-12T21:03:06.482Z,55.20
2023-05-12T21:05:33.125Z,54.90
2023-05-12T21:07:59.703Z,54.90
2023-05-12T21:10:26.264Z,54.50
2023-05-12T21:12:52.837Z,54.60
2023-05-12T21:15:19.401Z,54.80
2023-05-12T21:17:46.065Z,54.70
2023-05-12T21:20:12.627Z,54.60
2023-05-12T21:22:40.602Z,54.80
2023-05-12T21:25:07.426Z,54.70
2023-05-12T21:27:35.576Z,54.80
2023-05-12T21:30:02.197Z,55.20
2023-05-12T21:32:28.841Z,55.10
2023-05-12T21:34:55.436Z,55.10
2023-05-12T21:37:22.005Z,55.00
2023-05-12T21:39:48.563Z,55.10
2023-05-12T21:42:15.248Z,55.40
2023-05-12T21:44:41.823Z,55.50
2023-05-12T21:47:08.604Z,55.40
2023-05-12T21:49:35.203Z,55.70
2023-05-12T21:52:01.756Z,55.50
2023-05-12T21:54:31.227Z,55.50
2023-05-12T21:56:58.080Z,55.90
2023-05-12T21:59:25.129Z,55.90
2023-05-12T22:01:51.864Z,55.90
2023-05-12T22:04:18.620Z,55.60
2023-05-12T22:06:45.328Z,56.10
2023-05-12T22:09:12.193Z,55.90
2023-05-12T22:11:38.860Z,55.80
2023-05-12T22:14:05.534Z,55.90
2023-05-12T22:16:41.372Z,56.10
2023-05-12T22:19:08.843Z,56.20
2023-05-12T22:21:35.572Z,55.50
2023-05-12T22:24:03.142Z,55.60
2023-05-12T22:26:29.866Z,55.60
2023-05-12T22:28:56.562Z,55.70
2023-05-12T22:31:23.266Z,55.60
2023-05-12T22:33:49.961Z,56.00
2023-05-12T22:36:16.775Z,56.00
2023-05-12T22:38:43.423Z,56.20
2023-05-12T22:41:10.101Z,55.70
2023-05-12T22:43:36.712Z,55.50
2023-05-12T22:46:05.860Z,56.30
2023-05-12T22:48:38.644Z,55.50
2023-05-12T22:51:05.884Z,55.60
2023-05-12T22:53:32.448Z,56.10
2023-05-12T22:55:59.098Z,56.20
2023-05-12T22:58:25.661Z,55.80
2023-05-12T23:00:52.410Z,56.40
2023-05-12T23:03:19.142Z,56.10
2023-05-12T23:05:45.824Z,55.70
2023-05-12T23:08:12.387Z,56.20
2023-05-12T23:10:39.007Z,56.60
2023-05-12T23:13:05.623Z,56.50
2023-05-12T23:15:32.263Z,56.20
2023-05-12T23:17:58.954Z,56.00
2023-05-12T23:20:25.647Z,55.60
2023-05-12T23:22:52.252Z,56.10
2023-05-12T23:25:18.898Z,56.00
2023-05-12T23:27:45.537Z,55.90
2023-05-12T23:30:12.335Z,56.10
2023-05-12T23:32:39.070Z,55.70
2023-05-12T23:35:06.011Z,55.50
2023-05-12T23:37:32.646Z,55.80
2023-05-12T23:39:59.288Z,55.80
2023-05-12T23:42:25.878Z,55.50
2023-05-12T23:44:52.525Z,55.60
2023-05-12T23:47:19.606Z,56.00
2023-05-12T23:49:46.283Z,55.70
2023-05-12T23:52:12.848Z,55.90
2023-05-12T23:54:39.418Z,55.40
2023-05-12T23:57:06.395Z,56.00
2023-05-12T23:59:32.966Z,55.80
